Time;durP1;ratioP1;P1;durP2;ratioP2;P2;SDS_P1;SDS_P2;PMS_P1;PMS_P2;Temp;Humidity;BMP_temperature;BMP_pressure;BME280_temperature;BME280_humidity;BME280_pressure;Samples;Min_cycle;Max_cycle;Signal;HPM_P1;HPM_P2
2022/02/21 00:05:10;;;;;;;2.23;0.60;;;17.10;65.60;;;;;;10406094;28;20217;-60
2022/02/21 00:10:32;;;;;;;0.90;0.47;;;17.20;65.70;;;;;;10408620;28;20194;-59
2022/02/21 00:15:55;;;;;;;1.37;0.50;;;17.20;65.70;;;;;;10410128;28;20593;-61
2022/02/21 00:21:18;;;;;;;0.83;0.50;;;17.10;65.70;;;;;;10410033;28;20221;-59
2022/02/21 00:26:40;;;;;;;1.60;0.70;;;17.20;65.70;;;;;;10408724;28;20244;-60
2022/02/21 00:32:05;;;;;;;1.17;0.40;;;17.20;65.50;;;;;;10410293;28;20190;-60
2022/02/21 00:37:27;;;;;;;0.70;0.53;;;17.10;65.40;;;;;;10407742;22;20233;-62
2022/02/21 00:42:49;;;;;;;1.20;0.70;;;17.10;65.40;;;;;;10369447;28;20221;-63
2022/02/21 00:48:13;;;;;;;1.23;0.40;;;17.10;65.30;;;;;;10368238;28;20596;-64
2022/02/21 00:53:35;;;;;;;0.73;0.40;;;17.10;65.20;;;;;;10367840;28;20191;-63
2022/02/21 00:58:57;;;;;;;0.87;0.43;;;17.20;65.30;;;;;;10367364;28;20229;-63
2022/02/21 01:04:20;;;;;;;1.50;0.70;;;17.10;65.30;;;;;;10408179;28;20229;-63
2022/02/21 01:09:42;;;;;;;1.63;0.60;;;17.10;65.30;;;;;;10328316;28;20222;-62
2022/02/21 01:15:06;;;;;;;1.30;0.43;;;17.10;65.30;;;;;;10388437;28;20201;-63
2022/02/21 01:20:30;;;;;;;1.30;0.30;;;17.10;65.20;;;;;;10379168;28;20226;-62
2022/02/21 01:25:52;;;;;;;0.50;0.40;;;17.10;65.20;;;;;;10368503;28;20225;-62
2022/02/21 01:31:14;;;;;;;0.30;0.30;;;17.10;65.20;;;;;;10409693;28;20190;-62
2022/02/21 01:36:37;;;;;;;1.10;0.40;;;17.10;65.20;;;;;;10333985;28;20567;-63
2022/02/21 01:42:00;;;;;;;1.50;0.40;;;17.20;65.20;;;;;;10334830;28;20215;-61
2022/02/21 01:47:23;;;;;;;0.57;0.30;;;17.10;65.20;;;;;;10365995;28;20219;-63
2022/02/21 01:52:48;;;;;;;0.63;0.33;;;17.10;65.20;;;;;;10374318;28;20187;-63
2022/02/21 01:58:11;;;;;;;0.47;0.40;;;17.10;65.20;;;;;;10377635;28;20217;-61
2022/02/21 02:03:33;;;;;;;1.03;0.40;;;17.10;65.70;;;;;;10373529;28;20215;-63
2022/02/21 02:08:57;;;;;;;0.70;0.40;;;17.10;65.10;;;;;;10333385;28;20212;-62
2022/02/21 02:14:33;;;;;;;0.67;0.40;;;17.10;65.10;;;;;;10333779;28;20622;-62
2022/02/21 02:19:55;;;;;;;0.37;0.20;;;17.10;64.90;;;;;;10333365;28;20218;-62
2022/02/21 02:25:18;;;;;;;0.33;0.30;;;17.10;65.00;;;;;;10333298;28;20321;-63
2022/02/21 02:30:40;;;;;;;0.60;0.30;;;17.10;64.90;;;;;;10333310;28;20199;-63
2022/02/21 02:36:03;;;;;;;0.30;0.30;;;17.10;64.80;;;;;;10348904;28;20582;-63
2022/02/21 02:41:26;;;;;;;0.20;0.20;;;17.10;64.80;;;;;;10372078;28;20194;-62
2022/02/21 02:46:49;;;;;;;0.43;0.33;;;17.10;64.80;;;;;;10372379;28;20685;-63
2022/02/21 02:52:11;;;;;;;0.33;0.30;;;17.10;64.80;;;;;;10370638;28;20562;-62
2022/02/21 02:57:35;;;;;;;0.57;0.30;;;17.10;64.70;;;;;;10372272;28;20712;-61
2022/02/21 03:02:57;;;;;;;1.97;0.30;;;17.10;64.70;;;;;;10371677;28;20240;-62
2022/02/21 03:08:19;;;;;;;0.30;0.23;;;17.10;64.70;;;;;;10373959;28;20214;-62
2022/02/21 03:13:42;;;;;;;0.60;0.40;;;17.10;64.70;;;;;;10331405;28;20195;-63
2022/02/21 03:19:04;;;;;;;0.60;0.40;;;17.10;64.70;;;;;;10330485;28;20227;-63
2022/02/21 03:24:26;;;;;;;1.10;0.40;;;17.10;64.70;;;;;;10357781;28;20218;-63
2022/02/21 03:29:50;;;;;;;1.70;0.50;;;17.10;64.50;;;;;;10393561;28;20217;-63
2022/02/21 03:35:13;;;;;;;1.00;0.50;;;17.10;64.60;;;;;;10376636;28;20198;-63
2022/02/21 03:40:35;;;;;;;0.63;0.33;;;17.10;64.50;;;;;;10371057;28;20206;-61
2022/02/21 03:45:59;;;;;;;0.70;0.40;;;17.10;64.50;;;;;;10370219;28;20226;-63
2022/02/21 03:51:21;;;;;;;1.17;0.50;;;17.10;64.40;;;;;;10368322;28;20190;-63
2022/02/21 03:56:43;;;;;;;1.13;0.40;;;17.10;64.40;;;;;;10330036;28;20203;-63
2022/02/21 04:02:06;;;;;;;0.70;0.47;;;17.10;64.30;;;;;;10365285;28;20617;-62
2022/02/21 04:07:29;;;;;;;1.93;0.57;;;17.10;64.40;;;;;;10400507;28;20218;-63
2022/02/21 04:12:51;;;;;;;0.60;0.40;;;17.10;64.30;;;;;;10410603;28;20193;-62
2022/02/21 04:18:14;;;;;;;1.90;0.67;;;17.10;64.30;;;;;;10410212;28;20573;-63
2022/02/21 04:23:36;;;;;;;1.03;0.67;;;17.10;64.20;;;;;;10390467;28;20214;-63
2022/02/21 04:28:58;;;;;;;2.20;0.50;;;17.10;64.30;;;;;;10364566;28;20222;-63
2022/02/21 04:34:22;;;;;;;0.80;0.50;;;17.10;64.20;;;;;;10379060;28;20206;-63
2022/02/21 04:39:44;;;;;;;1.13;0.67;;;17.10;64.20;;;;;;10409527;28;20217;-63
2022/02/21 04:45:07;;;;;;;1.13;0.53;;;17.10;64.20;;;;;;10410034;28;20214;-62
2022/02/21 04:50:31;;;;;;;1.10;0.57;;;17.10;64.20;;;;;;10395788;28;20222;-61
2022/02/21 04:55:53;;;;;;;1.30;0.57;;;17.10;64.00;;;;;;10372957;28;20237;-61
2022/02/21 05:01:15;;;;;;;1.00;0.60;;;17.20;64.00;;;;;;10369238;28;20204;-62
2022/02/21 05:06:38;;;;;;;1.80;0.77;;;17.10;64.00;;;;;;10376932;28;20601;-61
2022/02/21 05:12:00;;;;;;;2.33;0.77;;;17.10;64.00;;;;;;10379148;28;20194;-62
2022/02/21 05:17:22;;;;;;;2.03;0.67;;;17.20;64.00;;;;;;10375683;28;20225;-63
2022/02/21 05:22:46;;;;;;;2.00;0.67;;;17.20;64.00;;;;;;10371996;28;20226;-63
2022/02/21 05:28:08;;;;;;;1.53;0.63;;;17.20;64.10;;;;;;10375621;28;20229;-61
2022/02/21 05:33:30;;;;;;;1.50;0.67;;;17.20;64.10;;;;;;10378512;28;20701;-62
2022/02/21 05:38:54;;;;;;;2.40;0.60;;;17.20;64.10;;;;;;10373524;28;20264;-62
2022/02/21 05:44:16;;;;;;;2.03;0.80;;;17.20;64.10;;;;;;10375233;28;20214;-61
2022/02/21 05:49:39;;;;;;;2.67;0.77;;;17.20;64.20;;;;;;10394127;28;20248;-62
2022/02/21 05:55:02;;;;;;;1.37;0.60;;;17.20;64.00;;;;;;10366964;28;20669;-61
2022/02/21 06:00:25;;;;;;;1.27;0.47;;;17.20;64.00;;;;;;10414533;28;20217;-61
2022/02/21 06:05:47;;;;;;;3.17;1.00;;;17.20;64.10;;;;;;10397032;28;20214;-62
2022/02/21 06:11:10;;;;;;;1.40;0.60;;;17.10;64.10;;;;;;10375943;28;20669;-60
2022/02/21 06:16:32;;;;;;;1.97;0.70;;;17.20;64.10;;;;;;10406119;28;20593;-61
2022/02/21 06:21:55;;;;;;;2.40;0.80;;;17.20;64.00;;;;;;10368719;28;20194;-62
2022/02/21 06:27:19;;;;;;;2.93;0.70;;;17.20;64.20;;;;;;10373996;28;20214;-61
2022/02/21 06:32:41;;;;;;;1.23;0.60;;;17.10;64.20;;;;;;10369756;28;20198;-61
2022/02/21 06:38:05;;;;;;;2.07;0.80;;;17.10;64.10;;;;;;10385708;22;20221;-60
2022/02/21 06:43:28;;;;;;;1.60;0.80;;;17.20;64.10;;;;;;10450694;28;20714;-60
2022/02/21 06:48:52;;;;;;;1.10;0.67;;;17.10;64.20;;;;;;10452201;28;20209;-61
2022/02/21 06:54:14;;;;;;;3.17;0.83;;;17.10;64.10;;;;;;10401298;22;20230;-63
2022/02/21 06:59:37;;;;;;;1.63;0.80;;;17.10;64.00;;;;;;10368319;28;20199;-62
2022/02/21 07:04:59;;;;;;;1.23;0.70;;;17.10;64.00;;;;;;10329388;28;20251;-62
2022/02/21 07:10:21;;;;;;;2.00;0.83;;;17.10;64.10;;;;;;10327143;28;20210;-62
2022/02/21 07:15:45;;;;;;;2.37;0.70;;;17.20;64.10;;;;;;10329819;28;20206;-62
2022/02/21 07:21:07;;;;;;;2.83;0.80;;;17.20;64.20;;;;;;10327109;28;20238;-62
2022/02/21 07:26:29;;;;;;;1.70;0.67;;;17.20;64.20;;;;;;10287791;28;20587;-63
2022/02/21 07:31:53;;;;;;;3.70;1.00;;;17.30;64.30;;;;;;10290452;28;20242;-62
2022/02/21 07:37:15;;;;;;;3.03;0.80;;;17.30;64.40;;;;;;10289757;28;20196;-63
2022/02/21 07:42:39;;;;;;;0.97;0.53;;;17.20;64.40;;;;;;10323366;28;20226;-62
2022/02/21 07:48:03;;;;;;;2.60;0.83;;;17.30;64.50;;;;;;10328831;28;20203;-63
2022/02/21 07:53:25;;;;;;;2.67;1.00;;;17.30;64.60;;;;;;10321202;28;20610;-62
2022/02/21 07:58:47;;;;;;;2.27;1.00;;;17.30;64.60;;;;;;10325465;28;20222;-63
2022/02/21 08:04:11;;;;;;;2.33;1.00;;;17.30;64.70;;;;;;10326904;28;20215;-62
2022/02/21 08:09:34;;;;;;;1.60;0.80;;;17.30;64.70;;;;;;10328456;28;20218;-63
2022/02/21 08:14:56;;;;;;;1.90;0.90;;;17.30;64.70;;;;;;10328118;28;20299;-63
2022/02/21 08:20:22;;;;;;;2.20;1.00;;;17.30;64.80;;;;;;10326795;28;20207;-64
2022/02/21 08:25:44;;;;;;;2.60;1.00;;;17.30;64.70;;;;;;10327709;28;20223;-62
2022/02/21 08:31:06;;;;;;;3.47;0.90;;;17.30;64.80;;;;;;10327650;28;20726;-63
2022/02/21 08:36:30;;;;;;;3.33;0.80;;;17.30;64.80;;;;;;10329757;28;20279;-63
2022/02/21 08:41:52;;;;;;;2.73;0.90;;;17.30;64.80;;;;;;10334426;28;20792;-63
2022/02/21 08:47:16;;;;;;;2.03;0.70;;;17.30;64.80;;;;;;10334560;28;20219;-62
2022/02/21 08:52:42;;;;;;;2.03;0.80;;;17.30;64.80;;;;;;10331264;28;20227;-63
2022/02/21 08:58:04;;;;;;;3.30;1.10;;;17.30;64.80;;;;;;10333023;28;20210;-63
2022/02/21 09:03:26;;;;;;;3.00;0.90;;;17.30;64.90;;;;;;10334598;28;20218;-63
2022/02/21 09:08:50;;;;;;;3.27;1.23;;;17.30;64.90;;;;;;10327804;28;20258;-62
2022/02/21 09:14:12;;;;;;;3.33;1.27;;;17.30;64.90;;;;;;10332634;28;20219;-63
2022/02/21 09:19:34;;;;;;;1.50;0.70;;;17.30;65.00;;;;;;10328255;28;20210;-62
2022/02/21 09:24:57;;;;;;;2.90;0.83;;;17.30;65.00;;;;;;10330077;28;20633;-63
2022/02/21 09:30:20;;;;;;;0.93;0.60;;;17.30;65.00;;;;;;10334110;28;20199;-63
2022/02/21 09:35:42;;;;;;;1.80;0.83;;;17.30;64.90;;;;;;10330187;28;20686;-62
2022/02/21 09:41:05;;;;;;;2.60;0.90;;;17.30;65.00;;;;;;10332468;28;20219;-62
2022/02/21 09:46:31;;;;;;;2.43;0.87;;;17.30;65.00;;;;;;10333170;28;20215;-63
2022/02/21 09:51:53;;;;;;;3.10;1.07;;;17.30;64.90;;;;;;10326011;28;20219;-62
2022/02/21 09:57:16;;;;;;;3.00;1.40;;;17.30;64.90;;;;;;10326658;28;20199;-60
2022/02/21 10:02:39;;;;;;;2.53;1.10;;;17.30;64.90;;;;;;10326207;28;20230;-62
2022/02/21 10:08:07;;;;;;;4.10;1.33;;;17.30;65.00;;;;;;10333491;28;20211;-62
2022/02/21 10:13:31;;;;;;;6.10;1.63;;;17.30;65.00;;;;;;10329514;28;20749;-61
2022/02/21 10:19:17;;;;;;;5.10;2.20;;;17.30;65.00;;;;;;10329403;28;20199;-61
2022/02/21 10:24:42;;;;;;;4.23;1.70;;;17.30;64.80;;;;;;10332174;28;20590;-61
2022/02/21 10:30:09;;;;;;;8.83;1.90;;;17.30;65.10;;;;;;10331869;28;20593;-62
2022/02/21 10:35:32;;;;;;;3.27;1.40;;;17.30;65.10;;;;;;10326984;28;20191;-61
2022/02/21 10:41:05;;;;;;;6.00;1.90;;;17.30;65.10;;;;;;10327051;28;20602;-62
2022/02/21 10:46:29;;;;;;;4.53;1.50;;;17.30;65.00;;;;;;10331209;28;20211;-60
2022/02/21 10:51:53;;;;;;;3.47;1.50;;;17.30;65.10;;;;;;10327540;28;20869;-61
2022/02/21 10:57:18;;;;;;;4.27;1.60;;;17.30;65.10;;;;;;10329456;28;20195;-61
2022/02/21 11:02:43;;;;;;;2.00;1.23;;;17.30;65.10;;;;;;10329682;28;20219;-62
2022/02/21 11:08:06;;;;;;;3.73;1.60;;;17.30;65.00;;;;;;10329993;28;20195;-61
2022/02/21 11:13:30;;;;;;;3.27;1.20;;;17.30;65.00;;;;;;10324101;28;20765;-62
2022/02/21 11:18:54;;;;;;;4.07;1.67;;;17.30;65.00;;;;;;10330339;28;20290;-61
2022/02/21 11:24:18;;;;;;;2.40;1.30;;;17.30;65.10;;;;;;10329098;28;20241;-61
2022/02/21 11:29:47;;;;;;;1.97;1.30;;;17.30;65.10;;;;;;10331606;28;20194;-61
2022/02/21 11:35:19;;;;;;;3.27;1.73;;;17.30;65.10;;;;;;10321144;28;20256;-62
2022/02/21 11:40:53;;;;;;;3.77;1.17;;;17.30;65.00;;;;;;10330301;28;20219;-63
2022/02/21 11:46:23;;;;;;;1.87;1.17;;;17.30;65.00;;;;;;10330749;28;20602;-58
2022/02/21 11:51:46;;;;;;;4.57;2.00;;;17.30;65.00;;;;;;10329302;28;20219;-61
2022/02/21 11:57:09;;;;;;;3.17;1.30;;;17.30;65.00;;;;;;10329230;28;20183;-62
2022/02/21 12:02:31;;;;;;;3.37;1.20;;;17.30;65.10;;;;;;10328721;28;20227;-61
2022/02/21 12:07:57;;;;;;;2.30;1.03;;;17.30;64.90;;;;;;10327849;28;20226;-62
2022/02/21 12:13:21;;;;;;;1.40;0.90;;;17.30;64.90;;;;;;10318045;28;20218;-57
2022/02/21 12:18:45;;;;;;;2.10;1.03;;;17.30;65.10;;;;;;10315682;28;20213;-62
2022/02/21 12:24:11;;;;;;;2.43;1.30;;;17.30;65.20;;;;;;10328880;28;20222;-61
2022/02/21 12:29:39;;;;;;;3.00;1.30;;;17.30;65.30;;;;;;10329789;28;20273;-60
2022/02/21 12:35:01;;;;;;;2.47;1.33;;;17.30;65.30;;;;;;10327423;28;20215;-63
2022/02/21 12:40:25;;;;;;;2.23;1.00;;;17.30;65.30;;;;;;10302216;28;20203;-63
2022/02/21 12:45:47;;;;;;;2.97;1.33;;;17.40;65.20;;;;;;10288368;28;20595;-63
2022/02/21 12:51:09;;;;;;;2.40;1.27;;;17.40;65.10;;;;;;10323476;22;20207;-56
2022/02/21 12:56:44;;;;;;;3.27;1.40;;;17.50;65.20;;;;;;10446086;28;20185;-54
2022/02/21 13:02:08;;;;;;;4.50;0.90;;;17.50;65.00;;;;;;10448279;28;20209;-58
2022/02/21 13:07:30;;;;;;;2.87;1.20;;;17.40;65.20;;;;;;10414844;28;20224;-57
2022/02/21 13:13:01;;;;;;;1.57;1.03;;;17.40;65.30;;;;;;10389914;28;20222;-59
2022/02/21 13:18:23;;;;;;;1.37;0.80;;;17.40;65.40;;;;;;10424984;28;20198;-57
2022/02/21 13:23:45;;;;;;;1.90;1.00;;;17.40;65.70;;;;;;10370586;28;20221;-59
2022/02/21 13:29:22;;;;;;;2.13;0.80;;;17.30;65.70;;;;;;10399807;28;20202;-58
2022/02/21 13:34:50;;;;;;;2.73;1.07;;;17.40;65.60;;;;;;10376521;28;20221;-57
2022/02/21 13:40:21;;;;;;;1.67;0.83;;;17.30;65.60;;;;;;10407001;28;20197;-57
2022/02/21 13:45:50;;;;;;;1.53;1.03;;;17.30;65.50;;;;;;10439801;28;20218;-59
2022/02/21 13:51:17;;;;;;;1.17;0.80;;;17.30;65.60;;;;;;10436188;28;20212;-58
2022/02/21 13:56:40;;;;;;;2.63;0.90;;;17.30;65.60;;;;;;10433669;28;20189;-59
2022/02/21 14:02:03;;;;;;;1.87;1.00;;;17.30;65.60;;;;;;10398247;28;20988;-58
2022/02/21 14:07:25;;;;;;;1.70;0.97;;;17.30;65.70;;;;;;10375317;28;20214;-59
2022/02/21 14:12:55;;;;;;;2.23;0.80;;;17.30;65.70;;;;;;10374535;28;20576;-57
2022/02/21 14:18:19;;;;;;;1.47;0.80;;;17.30;65.60;;;;;;10380956;28;20261;-57
2022/02/21 14:23:42;;;;;;;1.20;0.60;;;17.30;65.80;;;;;;10415598;28;20224;-58
2022/02/21 14:29:04;;;;;;;1.07;0.73;;;17.30;65.80;;;;;;10415745;28;20190;-58
2022/02/21 14:34:27;;;;;;;1.20;0.63;;;17.30;65.80;;;;;;10388997;28;20207;-57
2022/02/21 14:39:49;;;;;;;1.27;0.70;;;17.30;65.80;;;;;;10374043;28;20573;-59
2022/02/21 14:45:11;;;;;;;2.07;0.70;;;17.30;65.80;;;;;;10373599;28;20211;-59
2022/02/21 14:50:35;;;;;;;1.63;0.87;;;17.30;65.80;;;;;;10397919;28;20200;-59
2022/02/21 14:55:57;;;;;;;0.90;0.47;;;17.30;65.80;;;;;;10444969;28;20200;-57
2022/02/21 15:01:19;;;;;;;1.57;0.90;;;17.30;65.80;;;;;;10455028;28;20220;-59
2022/02/21 15:06:44;;;;;;;0.77;0.50;;;17.30;65.80;;;;;;10439716;28;20220;-58
2022/02/21 15:12:06;;;;;;;1.23;0.93;;;17.30;66.40;;;;;;10396655;28;20217;-62
2022/02/21 15:17:29;;;;;;;0.70;0.40;;;17.30;65.90;;;;;;10441655;28;20190;-58
2022/02/21 15:22:52;;;;;;;1.03;0.50;;;17.40;65.90;;;;;;10446545;28;20209;-55
2022/02/21 15:28:14;;;;;;;1.50;0.70;;;17.40;66.10;;;;;;10454519;28;20212;-58
2022/02/21 15:33:36;;;;;;;1.30;0.67;;;17.40;66.20;;;;;;10390208;28;20231;-62
2022/02/21 15:39:00;;;;;;;0.70;0.67;;;17.40;66.30;;;;;;10431716;28;20193;-59
2022/02/21 15:44:22;;;;;;;1.27;0.90;;;17.40;66.20;;;;;;10397156;28;20240;-62
2022/02/21 15:49:44;;;;;;;1.67;1.20;;;17.40;66.10;;;;;;10414767;28;20189;-62
2022/02/21 15:55:09;;;;;;;4.27;1.20;;;17.30;66.00;;;;;;10418854;28;20214;-62
2022/02/21 16:00:31;;;;;;;1.93;1.17;;;17.30;66.00;;;;;;10393894;28;20193;-62
2022/02/21 16:05:53;;;;;;;3.77;1.50;;;17.30;65.90;;;;;;10375901;28;20224;-62
2022/02/21 16:11:17;;;;;;;2.50;1.20;;;17.30;65.90;;;;;;10398356;28;20223;-62
2022/02/21 16:16:40;;;;;;;3.27;1.20;;;17.40;65.80;;;;;;10411830;28;20205;-61
2022/02/21 16:22:02;;;;;;;1.90;1.00;;;17.30;65.80;;;;;;10411395;28;20221;-62
2022/02/21 16:27:26;;;;;;;1.83;0.83;;;17.30;65.70;;;;;;10404162;28;20236;-64
2022/02/21 16:32:48;;;;;;;1.83;1.07;;;17.30;65.90;;;;;;10370141;28;20222;-64
2022/02/21 16:38:13;;;;;;;2.58;1.20;;;17.40;66.10;;;;;;10367505;28;20803;-62
2022/02/21 16:43:36;;;;;;;1.00;0.83;;;18.30;63.30;;;;;;10369741;28;20226;-63
2022/02/21 16:48:58;;;;;;;1.63;0.80;;;17.80;64.80;;;;;;10372236;28;20221;-62
2022/02/21 16:54:21;;;;;;;2.50;1.42;;;17.70;65.40;;;;;;10436879;28;20802;-66
2022/02/21 16:59:45;;;;;;;5.10;1.20;;;18.10;64.30;;;;;;10416170;28;20800;-63
